sensor_id;sensor_type;location;lat;lon;timestamp;pressure;altitude;pressure_sealevel;temperature;humidity
70982;BME280;58640;51.320;9.456;2023-03-01T00:01:11;100675.78;;;-2.04;72.12
70982;BME280;58640;51.320;9.456;2023-03-01T00:03:38;100668.91;;;-2.06;72.47
70982;BME280;58640;51.320;9.456;2023-03-01T00:06:04;100663.91;;;-2.12;72.64
70982;BME280;58640;51.320;9.456;2023-03-01T00:08:30;100669.34;;;-2.17;72.65
70982;BME280;58640;51.320;9.456;2023-03-01T00:11:15;100668.50;;;-2.17;72.76
70982;BME280;58640;51.320;9.456;2023-03-01T00:13:42;100664.94;;;-2.16;73.01
70982;BME280;58640;51.320;9.456;2023-03-01T00:16:30;100666.56;;;-2.14;72.86
70982;BME280;58640;51.320;9.456;2023-03-01T00:18:56;100669.47;;;-2.20;73.18
70982;BME280;58640;51.320;9.456;2023-03-01T00:21:22;100666.19;;;-2.25;73.32
70982;BME280;58640;51.320;9.456;2023-03-01T00:23:49;100660.06;;;-2.25;73.65
70982;BME280;58640;51.320;9.456;2023-03-01T00:26:15;100661.19;;;-2.31;73.76
70982;BME280;58640;51.320;9.456;2023-03-01T00:28:42;100658.75;;;-2.35;73.76
70982;BME280;58640;51.320;9.456;2023-03-01T00:31:15;100651.72;;;-2.35;73.65
70982;BME280;58640;51.320;9.456;2023-03-01T00:33:42;100657.88;;;-2.36;74.07
70982;BME280;58640;51.320;9.456;2023-03-01T00:36:07;100653.53;;;-2.37;73.88
70982;BME280;58640;51.320;9.456;2023-03-01T00:38:37;100654.59;;;-2.41;74.05
70982;BME280;58640;51.320;9.456;2023-03-01T00:41:13;100660.13;;;-2.47;74.15
70982;BME280;58640;51.320;9.456;2023-03-01T00:43:39;100661.94;;;-2.49;74.21
70982;BME280;58640;51.320;9.456;2023-03-01T00:46:07;100653.47;;;-2.55;74.89
70982;BME280;58640;51.320;9.456;2023-03-01T00:48:34;100653.78;;;-2.63;75.09
70982;BME280;58640;51.320;9.456;2023-03-01T00:51:11;100652.06;;;-2.64;75.71
70982;BME280;58640;51.320;9.456;2023-03-01T00:53:37;100661.00;;;-2.68;76.19
70982;BME280;58640;51.320;9.456;2023-03-01T00:56:04;100654.03;;;-2.69;76.00
70982;BME280;58640;51.320;9.456;2023-03-01T00:58:30;100656.59;;;-2.67;76.25
70982;BME280;58640;51.320;9.456;2023-03-01T01:00:55;100658.50;;;-2.71;76.10
70982;BME280;58640;51.320;9.456;2023-03-01T01:03:21;100661.06;;;-2.69;76.23
70982;BME280;58640;51.320;9.456;2023-03-01T01:05:46;100667.34;;;-2.72;76.23
70982;BME280;58640;51.320;9.456;2023-03-01T01:08:11;100667.13;;;-2.67;75.81
70982;BME280;58640;51.320;9.456;2023-03-01T01:10:37;100660.53;;;-2.77;76.29
70982;BME280;58640;51.320;9.456;2023-03-01T01:13:03;100666.00;;;-2.82;76.71
70982;BME280;58640;51.320;9.456;2023-03-01T01:15:28;100655.84;;;-2.91;76.98
70982;BME280;58640;51.320;9.456;2023-03-01T01:17:53;100658.22;;;-2.85;76.53
70982;BME280;58640;51.320;9.456;2023-03-01T01:20:20;100657.34;;;-2.85;76.23
70982;BME280;58640;51.320;9.456;2023-03-01T01:22:45;100651.13;;;-2.83;76.17
70982;BME280;58640;51.320;9.456;2023-03-01T01:25:10;100649.66;;;-2.90;76.80
70982;BME280;58640;51.320;9.456;2023-03-01T01:27:36;100643.47;;;-2.89;76.52
70982;BME280;58640;51.320;9.456;2023-03-01T01:30:03;100642.56;;;-2.88;76.43
70982;BME280;58640;51.320;9.456;2023-03-01T01:32:29;100631.16;;;-2.88;76.12
70982;BME280;58640;51.320;9.456;2023-03-01T01:34:54;100624.19;;;-2.89;76.08
70982;BME280;58640;51.320;9.456;2023-03-01T01:37:20;100630.47;;;-2.92;76.13
70982;BME280;58640;51.320;9.456;2023-03-01T01:39:45;100617.16;;;-2.89;76.12
70982;BME280;58640;51.320;9.456;2023-03-01T01:42:18;100622.22;;;-2.84;75.84
70982;BME280;58640;51.320;9.456;2023-03-01T01:44:47;100619.78;;;-2.89;75.79
70982;BME280;58640;51.320;9.456;2023-03-01T01:47:21;100611.78;;;-2.86;75.42
70982;BME280;58640;51.320;9.456;2023-03-01T01:49:51;100619.13;;;-2.94;75.88
70982;BME280;58640;51.320;9.456;2023-03-01T01:52:21;100608.84;;;-3.00;76.40
70982;BME280;58640;51.320;9.456;2023-03-01T01:54:51;100597.53;;;-3.02;76.52
70982;BME280;58640;51.320;9.456;2023-03-01T01:57:26;100603.81;;;-3.06;76.83
70982;BME280;58640;51.320;9.456;2023-03-01T01:59:55;100596.00;;;-3.08;76.37
70982;BME280;58640;51.320;9.456;2023-03-01T02:02:23;100598.63;;;-3.08;76.76
70982;BME280;58640;51.320;9.456;2023-03-01T02:04:53;100601.38;;;-3.11;76.71
70982;BME280;58640;51.320;9.456;2023-03-01T02:07:23;100603.28;;;-3.14;77.05
70982;BME280;58640;51.320;9.456;2023-03-01T02:09:51;100605.84;;;-3.13;77.19
70982;BME280;58640;51.320;9.456;2023-03-01T02:12:20;100606.09;;;-3.19;77.41
70982;BME280;58640;51.320;9.456;2023-03-01T02:14:46;100609.34;;;-3.12;77.16
70982;BME280;58640;51.320;9.456;2023-03-01T02:17:14;100599.94;;;-3.18;77.55
70982;BME280;58640;51.320;9.456;2023-03-01T02:22:33;100603.72;;;-3.25;78.22
70982;BME280;58640;51.320;9.456;2023-03-01T02:25:32;100597.53;;;-3.24;78.08
70982;BME280;58640;51.320;9.456;2023-03-01T02:30:44;100597.31;;;-3.18;77.52
70982;BME280;58640;51.320;9.456;2023-03-01T02:33:30;100588.78;;;-3.24;77.97
70982;BME280;58640;51.320;9.456;2023-03-01T02:36:02;100595.63;;;-3.20;78.01
70982;BME280;58640;51.320;9.456;2023-03-01T02:38:29;100593.94;;;-3.21;77.84
70982;BME280;58640;51.320;9.456;2023-03-01T02:40:56;100593.81;;;-3.18;77.45
70982;BME280;58640;51.320;9.456;2023-03-01T02:43:24;100591.25;;;-3.20;77.83
70982;BME280;58640;51.320;9.456;2023-03-01T02:45:52;100585.19;;;-3.22;77.38
70982;BME280;58640;51.320;9.456;2023-03-01T02:48:19;100582.59;;;-3.23;77.74
70982;BME280;58640;51.320;9.456;2023-03-01T02:51:05;100577.41;;;-3.25;77.33
70982;BME280;58640;51.320;9.456;2023-03-01T02:54:05;100582.94;;;-3.31;77.59
70982;BME280;58640;51.320;9.456;2023-03-01T02:56:32;100583.81;;;-3.32;77.84
70982;BME280;58640;51.320;9.456;2023-03-01T02:58:58;100577.84;;;-3.35;78.03
70982;BME280;58640;51.320;9.456;2023-03-01T03:01:26;100577.72;;;-3.32;77.70
70982;BME280;58640;51.320;9.456;2023-03-01T03:04:10;100575.44;;;-3.41;78.09
70982;BME280;58640;51.320;9.456;2023-03-01T03:06:36;100570.31;;;-3.44;78.59
70982;BME280;58640;51.320;9.456;2023-03-01T03:09:03;100574.00;;;-3.48;78.65
70982;BME280;58640;51.320;9.456;2023-03-01T03:11:28;100570.56;;;-3.50;78.55
70982;BME280;58640;51.320;9.456;2023-03-01T03:13:55;100568.00;;;-3.52;79.19
70982;BME280;58640;51.320;9.456;2023-03-01T03:16:21;100571.38;;;-3.48;78.77
70982;BME280;58640;51.320;9.456;2023-03-01T03:18:47;100577.41;;;-3.46;78.74
70982;BME280;58640;51.320;9.456;2023-03-01T03:21:13;100579.25;;;-3.48;78.59
70982;BME280;58640;51.320;9.456;2023-03-01T03:23:38;100560.97;;;-3.51;78.98
70982;BME280;58640;51.320;9.456;2023-03-01T03:26:05;100561.09;;;-3.54;78.96
70982;BME280;58640;51.320;9.456;2023-03-01T03:28:32;100555.84;;;-3.54;79.05
70982;BME280;58640;51.320;9.456;2023-03-01T03:30:58;100560.97;;;-3.51;79.01
70982;BME280;58640;51.320;9.456;2023-03-01T03:33:23;100549.72;;;-3.55;78.77
70982;BME280;58640;51.320;9.456;2023-03-01T03:35:49;100546.34;;;-3.58;79.01
70982;BME280;58640;51.320;9.456;2023-03-01T03:38:18;100550.25;;;-3.68;79.29
70982;BME280;58640;51.320;9.456;2023-03-01T03:40:49;100544.22;;;-3.70;79.81
70982;BME280;58640;51.320;9.456;2023-03-01T03:43:20;100538.50;;;-3.60;79.19
70982;BME280;58640;51.320;9.456;2023-03-01T03:45:47;100539.66;;;-3.67;79.20
70982;BME280;58640;51.320;9.456;2023-03-01T03:48:14;100544.31;;;-3.73;79.18
70982;BME280;58640;51.320;9.456;2023-03-01T03:50:39;100532.16;;;-3.76;79.18
70982;BME280;58640;51.320;9.456;2023-03-01T03:53:08;100537.59;;;-3.80;79.81
70982;BME280;58640;51.320;9.456;2023-03-01T03:55:34;100539.34;;;-3.81;79.78
70982;BME280;58640;51.320;9.456;2023-03-01T03:58:02;100534.84;;;-3.77;79.96
70982;BME280;58640;51.320;9.456;2023-03-01T04:00:32;100537.28;;;-3.73;79.42
70982;BME280;58640;51.320;9.456;2023-03-01T04:02:58;100544.97;;;-3.68;79.44
70982;BME280;58640;51.320;9.456;2023-03-01T04:05:24;100537.09;;;-3.68;79.37
70982;BME280;58640;51.320;9.456;2023-03-01T04:07:49;100537.09;;;-3.68;79.18
70982;BME280;58640;51.320;9.456;2023-03-01T04:10:26;100546.03;;;-3.72;79.49
70982;BME280;58640;51.320;9.456;2023-03-01T04:12:51;100537.34;;;-3.74;79.56
70982;BME280;58640;51.320;9.456;2023-03-01T04:15:17;100547.91;;;-3.76;80.09
70982;BME280;58640;51.320;9.456;2023-03-01T04:17:45;100539.09;;;-3.75;79.88
70982;BME280;58640;51.320;9.456;2023-03-01T04:20:13;100533.19;;;-3.80;80.50
70982;BME280;58640;51.320;9.456;2023-03-01T04:22:39;100537.72;;;-3.83;80.34
70982;BME280;58640;51.320;9.456;2023-03-01T04:25:05;100543.88;;;-3.84;80.66
70982;BME280;58640;51.320;9.456;2023-03-01T04:27:34;100539.78;;;-3.91;80.68
70982;BME280;58640;51.320;9.456;2023-03-01T04:30:00;100528.41;;;-3.92;81.40
70982;BME280;58640;51.320;9.456;2023-03-01T04:32:25;100533.66;;;-3.92;80.74
70982;BME280;58640;51.320;9.456;2023-03-01T04:34:51;100525.84;;;-3.93;81.21
70982;BME280;58640;51.320;9.456;2023-03-01T04:37:16;100533.78;;;-3.95;81.38
70982;BME280;58640;51.320;9.456;2023-03-01T04:39:41;100530.22;;;-3.94;81.76
70982;BME280;58640;51.320;9.456;2023-03-01T04:42:11;100537.28;;;-3.94;81.68
70982;BME280;58640;51.320;9.456;2023-03-01T04:44:37;100533.78;;;-3.95;81.92
70982;BME280;58640;51.320;9.456;2023-03-01T04:47:02;100539.59;;;-3.87;81.68
70982;BME280;58640;51.320;9.456;2023-03-01T04:49:28;100531.47;;;-3.81;81.32
70982;BME280;58640;51.320;9.456;2023-03-01T04:51:53;100536.97;;;-3.87;81.01
70982;BME280;58640;51.320;9.456;2023-03-01T04:54:18;100535.47;;;-3.94;81.78
70982;BME280;58640;51.320;9.456;2023-03-01T04:56:43;100536.72;;;-4.02;81.69
70982;BME280;58640;51.320;9.456;2023-03-01T04:59:09;100529.91;;;-4.08;82.57
70982;BME280;58640;51.320;9.456;2023-03-01T05:01:35;100524.72;;;-4.09;82.40
70982;BME280;58640;51.320;9.456;2023-03-01T05:04:00;100529.91;;;-4.08;82.03
70982;BME280;58640;51.320;9.456;2023-03-01T05:06:28;100529.97;;;-4.09;82.38
70982;BME280;58640;51.320;9.456;2023-03-01T05:08:53;100537.03;;;-4.11;82.80
70982;BME280;58640;51.320;9.456;2023-03-01T05:11:19;100524.59;;;-4.06;82.24
70982;BME280;58640;51.320;9.456;2023-03-01T05:13:44;100522.78;;;-4.04;82.14
70982;BME280;58640;51.320;9.456;2023-03-01T05:16:09;100520.13;;;-4.04;82.19
70982;BME280;58640;51.320;9.456;2023-03-01T05:18:36;100521.00;;;-4.04;82.36
70982;BME280;58640;51.320;9.456;2023-03-01T05:21:08;100511.50;;;-4.08;82.57
70982;BME280;58640;51.320;9.456;2023-03-01T05:23:34;100510.44;;;-4.02;82.01
70982;BME280;58640;51.320;9.456;2023-03-01T05:26:03;100510.31;;;-3.99;82.03
70982;BME280;58640;51.320;9.456;2023-03-01T05:28:30;100523.47;;;-3.99;82.28
70982;BME280;58640;51.320;9.456;2023-03-01T05:30:55;100524.13;;;-3.94;82.33
70982;BME280;58640;51.320;9.456;2023-03-01T05:33:22;100526.13;;;-4.01;82.03
70982;BME280;58640;51.320;9.456;2023-03-01T05:35:48;100531.22;;;-3.96;82.67
70982;BME280;58640;51.320;9.456;2023-03-01T05:38:14;100530.22;;;-3.94;82.36
70982;BME280;58640;51.320;9.456;2023-03-01T05:40:45;100522.53;;;-3.98;82.02
70982;BME280;58640;51.320;9.456;2023-03-01T05:43:12;100528.72;;;-3.99;82.17
70982;BME280;58640;51.320;9.456;2023-03-01T05:45:38;100522.66;;;-4.01;82.01
70982;BME280;58640;51.320;9.456;2023-03-01T05:48:05;100523.56;;;-4.02;81.93
70982;BME280;58640;51.320;9.456;2023-03-01T05:50:34;100518.19;;;-3.99;82.19
70982;BME280;58640;51.320;9.456;2023-03-01T05:53:09;100521.00;;;-4.04;81.97
70982;BME280;58640;51.320;9.456;2023-03-01T05:55:35;100521.06;;;-4.05;82.36
70982;BME280;58640;51.320;9.456;2023-03-01T05:58:06;100518.44;;;-4.05;82.23
70982;BME280;58640;51.320;9.456;2023-03-01T06:00:33;100521.06;;;-4.05;81.99
70982;BME280;58640;51.320;9.456;2023-03-01T06:02:59;100515.88;;;-4.07;82.20
70982;BME280;58640;51.320;9.456;2023-03-01T06:05:25;100519.28;;;-4.05;82.37
70982;BME280;58640;51.320;9.456;2023-03-01T06:07:51;100516.66;;;-4.05;82.14
70982;BME280;58640;51.320;9.456;2023-03-01T06:10:19;100520.13;;;-4.04;82.39
70982;BME280;58640;51.320;9.456;2023-03-01T06:12:45;100520.13;;;-4.04;82.13
70982;BME280;58640;51.320;9.456;2023-03-01T06:15:12;100520.19;;;-4.06;82.57
70982;BME280;58640;51.320;9.456;2023-03-01T06:17:39;100515.69;;;-4.02;82.31
70982;BME280;58640;51.320;9.456;2023-03-01T06:20:17;100513.78;;;-3.99;82.01
70982;BME280;58640;51.320;9.456;2023-03-01T06:22:43;100510.06;;;-3.93;81.69
70982;BME280;58640;51.320;9.456;2023-03-01T06:25:10;100515.13;;;-3.89;81.69
70982;BME280;58640;51.320;9.456;2023-03-01T06:27:37;100516.81;;;-3.86;81.57
70982;BME280;58640;51.320;9.456;2023-03-01T06:30:03;100523.72;;;-3.84;81.54
70982;BME280;58640;51.320;9.456;2023-03-01T06:32:28;100526.09;;;-3.78;81.74
70982;BME280;58640;51.320;9.456;2023-03-01T06:34:55;100520.72;;;-3.75;81.32
70982;BME280;58640;51.320;9.456;2023-03-01T06:37:20;100514.50;;;-3.72;81.11
70982;BME280;58640;51.320;9.456;2023-03-01T06:39:45;100512.72;;;-3.72;81.25
70982;BME280;58640;51.320;9.456;2023-03-01T06:42:11;100511.56;;;-3.65;81.19
70982;BME280;58640;51.320;9.456;2023-03-01T06:44:37;100516.94;;;-3.68;81.40
70982;BME280;58640;51.320;9.456;2023-03-01T06:47:03;100516.06;;;-3.68;81.73
70982;BME280;58640;51.320;9.456;2023-03-01T06:49:28;100519.91;;;-3.55;81.02
70982;BME280;58640;51.320;9.456;2023-03-01T06:51:53;100515.47;;;-3.53;80.96
70982;BME280;58640;51.320;9.456;2023-03-01T06:54:19;100515.94;;;-3.44;80.73
70982;BME280;58640;51.320;9.456;2023-03-01T06:56:47;100519.13;;;-3.36;80.40
70982;BME280;58640;51.320;9.456;2023-03-01T06:59:12;100526.81;;;-3.31;80.23
70982;BME280;58640;51.320;9.456;2023-03-01T07:01:38;100515.22;;;-3.26;80.28
70982;BME280;58640;51.320;9.456;2023-03-01T07:04:04;100519.34;;;-3.20;80.28
70982;BME280;58640;51.320;9.456;2023-03-01T07:06:29;100514.63;;;-3.12;79.72
70982;BME280;58640;51.320;9.456;2023-03-01T07:08:55;100522.31;;;-3.08;79.80
70982;BME280;58640;51.320;9.456;2023-03-01T07:11:20;100520.28;;;-3.01;79.82
70982;BME280;58640;51.320;9.456;2023-03-01T07:13:45;100517.13;;;-2.89;79.16
70982;BME280;58640;51.320;9.456;2023-03-01T07:16:11;100520.16;;;-2.78;79.01
70982;BME280;58640;51.320;9.456;2023-03-01T07:18:36;100519.22;;;-2.77;78.71
70982;BME280;58640;51.320;9.456;2023-03-01T07:21:08;100510.28;;;-2.73;78.59
70982;BME280;58640;51.320;9.456;2023-03-01T07:23:34;100514.41;;;-2.67;78.45
70982;BME280;58640;51.320;9.456;2023-03-01T07:26:00;100506.38;;;-2.64;78.26
70982;BME280;58640;51.320;9.456;2023-03-01T07:28:26;100511.34;;;-2.57;78.17
70982;BME280;58640;51.320;9.456;2023-03-01T07:30:52;100515.53;;;-2.53;77.81
70982;BME280;58640;51.320;9.456;2023-03-01T07:33:17;100512.91;;;-2.34;76.69
70982;BME280;58640;51.320;9.456;2023-03-01T07:35:43;100517.56;;;-2.21;76.52
70982;BME280;58640;51.320;9.456;2023-03-01T07:38:08;100513.94;;;-2.18;76.28
70982;BME280;58640;51.320;9.456;2023-03-01T07:40:34;100506.44;;;-2.09;76.09
70982;BME280;58640;51.320;9.456;2023-03-01T07:42:59;100499.84;;;-1.99;75.64
70982;BME280;58640;51.320;9.456;2023-03-01T07:45:27;100500.81;;;-1.83;75.28
70982;BME280;58640;51.320;9.456;2023-03-01T07:47:53;100506.13;;;-1.66;74.17
70982;BME280;58640;51.320;9.456;2023-03-01T07:50:18;100502.88;;;-1.35;73.60
70982;BME280;58640;51.320;9.456;2023-03-01T07:52:48;100512.59;;;-1.01;72.64
70982;BME280;58640;51.320;9.456;2023-03-01T07:55:14;100503.63;;;-0.48;71.18
70982;BME280;58640;51.320;9.456;2023-03-01T07:57:39;100506.78;;;-0.09;68.22
70982;BME280;58640;51.320;9.456;2023-03-01T08:00:06;100513.22;;;0.34;66.63
70982;BME280;58640;51.320;9.456;2023-03-01T08:02:32;100509.59;;;0.66;64.51
70982;BME280;58640;51.320;9.456;2023-03-01T08:04:58;100508.78;;;0.95;62.70
70982;BME280;58640;51.320;9.456;2023-03-01T08:07:23;100509.44;;;1.28;61.57
70982;BME280;58640;51.320;9.456;2023-03-01T08:09:48;100504.81;;;1.46;60.93
70982;BME280;58640;51.320;9.456;2023-03-01T08:12:14;100506.38;;;1.78;59.34
70982;BME280;58640;51.320;9.456;2023-03-01T08:14:41;100507.75;;;2.12;58.00
70982;BME280;58640;51.320;9.456;2023-03-01T08:17:06;100503.22;;;2.14;57.22
70982;BME280;58640;51.320;9.456;2023-03-01T08:19:31;100487.97;;;2.44;56.74
70982;BME280;58640;51.320;9.456;2023-03-01T08:21:58;100488.47;;;2.89;56.07
70982;BME280;58640;51.320;9.456;2023-03-01T08:24:25;100490.94;;;3.05;54.94
70982;BME280;58640;51.320;9.456;2023-03-01T08:26:50;100485.47;;;3.21;55.08
70982;BME280;58640;51.320;9.456;2023-03-01T08:29:16;100486.72;;;3.15;54.40
70982;BME280;58640;51.320;9.456;2023-03-01T08:31:41;100487.94;;;3.61;54.12
70982;BME280;58640;51.320;9.456;2023-03-01T08:34:12;100484.50;;;3.72;53.23
70982;BME280;58640;51.320;9.456;2023-03-01T08:36:41;100476.03;;;3.67;52.85
70982;BME280;58640;51.320;9.456;2023-03-01T08:39:08;100483.19;;;4.02;52.14
70982;BME280;58640;51.320;9.456;2023-03-01T08:41:34;100477.66;;;4.18;51.63
70982;BME280;58640;51.320;9.456;2023-03-01T08:43:59;100478.53;;;3.93;52.21
70982;BME280;58640;51.320;9.456;2023-03-01T08:46:29;100480.22;;;4.43;51.05
70982;BME280;58640;51.320;9.456;2023-03-01T08:48:55;100481.63;;;4.36;50.04
70982;BME280;58640;51.320;9.456;2023-03-01T08:51:21;100473.53;;;3.89;51.27
70982;BME280;58640;51.320;9.456;2023-03-01T08:53:47;100470.25;;;3.73;51.83
70982;BME280;58640;51.320;9.456;2023-03-01T08:56:13;100468.94;;;4.39;50.64
70982;BME280;58640;51.320;9.456;2023-03-01T08:58:38;100460.50;;;4.69;50.11
70982;BME280;58640;51.320;9.456;2023-03-01T09:01:08;100462.03;;;4.84;50.28
70982;BME280;58640;51.320;9.456;2023-03-01T09:03:34;100459.69;;;5.03;49.67
70982;BME280;58640;51.320;9.456;2023-03-01T09:06:01;100451.34;;;5.19;49.26
70982;BME280;58640;51.320;9.456;2023-03-01T09:08:26;100459.25;;;5.20;48.37
70982;BME280;58640;51.320;9.456;2023-03-01T09:10:52;100450.41;;;5.20;48.32
70982;BME280;58640;51.320;9.456;2023-03-01T09:13:17;100453.63;;;5.12;48.12
70982;BME280;58640;51.320;9.456;2023-03-01T09:15:43;100455.28;;;5.37;47.12
70982;BME280;58640;51.320;9.456;2023-03-01T09:18:08;100455.81;;;5.64;46.74
70982;BME280;58640;51.320;9.456;2023-03-01T09:20:33;100454.56;;;5.46;47.31
70982;BME280;58640;51.320;9.456;2023-03-01T09:22:59;100455.84;;;5.86;46.83
70982;BME280;58640;51.320;9.456;2023-03-01T09:25:24;100449.44;;;6.00;46.84
70982;BME280;58640;51.320;9.456;2023-03-01T09:27:54;100451.34;;;6.20;46.26
70982;BME280;58640;51.320;9.456;2023-03-01T09:30:20;100446.63;;;6.01;46.25
70982;BME280;58640;51.320;9.456;2023-03-01T09:32:45;100437.56;;;6.46;45.50
70982;BME280;58640;51.320;9.456;2023-03-01T09:35:11;100448.81;;;6.61;45.75
70982;BME280;58640;51.320;9.456;2023-03-01T09:37:37;100445.09;;;6.52;44.43
70982;BME280;58640;51.320;9.456;2023-03-01T09:40:07;100434.66;;;6.49;44.78
70982;BME280;58640;51.320;9.456;2023-03-01T09:45:49;100433.28;;;6.01;46.03
70982;BME280;58640;51.320;9.456;2023-03-01T09:48:19;100430.41;;;6.47;46.26
70982;BME280;58640;51.320;9.456;2023-03-01T09:50:47;100433.47;;;6.31;46.09
70982;BME280;58640;51.320;9.456;2023-03-01T09:53:16;100428.97;;;6.43;46.61
70982;BME280;58640;51.320;9.456;2023-03-01T09:55:54;100422.72;;;6.85;44.66
70982;BME280;58640;51.320;9.456;2023-03-01T10:01:28;100429.31;;;6.49;44.45
70982;BME280;58640;51.320;9.456;2023-03-01T10:06:26;100421.47;;;7.20;41.72
70982;BME280;58640;51.320;9.456;2023-03-01T10:08:56;100420.06;;;7.26;41.66
70982;BME280;58640;51.320;9.456;2023-03-01T10:11:24;100423.88;;;7.23;41.65
70982;BME280;58640;51.320;9.456;2023-03-01T10:14:20;100418.28;;;6.74;42.91
70982;BME280;58640;51.320;9.456;2023-03-01T10:16:57;100421.59;;;6.67;43.50
70982;BME280;58640;51.320;9.456;2023-03-01T10:19:31;100409.84;;;7.10;42.47
70982;BME280;58640;51.320;9.456;2023-03-01T10:22:10;100417.66;;;7.02;41.51
70982;BME280;58640;51.320;9.456;2023-03-01T10:24:36;100410.13;;;6.44;42.67
70982;BME280;58640;51.320;9.456;2023-03-01T10:27:07;100407.28;;;6.57;42.92
70982;BME280;58640;51.320;9.456;2023-03-01T10:30:13;100400.22;;;6.67;42.98
70982;BME280;58640;51.320;9.456;2023-03-01T10:32:42;100398.28;;;6.58;42.34
70982;BME280;58640;51.320;9.456;2023-03-01T10:35:20;100393.88;;;6.36;42.96
70982;BME280;58640;51.320;9.456;2023-03-01T10:37:57;100387.16;;;5.66;44.57
70982;BME280;58640;51.320;9.456;2023-03-01T10:40:23;100377.91;;;6.14;44.32
70982;BME280;58640;51.320;9.456;2023-03-01T10:42:49;100378.63;;;6.16;44.34
70982;BME280;58640;51.320;9.456;2023-03-01T10:45:33;100384.25;;;6.45;44.38
70982;BME280;58640;51.320;9.456;2023-03-01T10:50:33;100378.50;;;6.07;45.47
70982;BME280;58640;51.320;9.456;2023-03-01T10:53:01;100377.03;;;6.25;44.45
70982;BME280;58640;51.320;9.456;2023-03-01T10:55:34;100375.72;;;6.08;44.33
70982;BME280;58640;51.320;9.456;2023-03-01T10:58:17;100374.13;;;5.17;44.70
70982;BME280;58640;51.320;9.456;2023-03-01T11:00:58;100379.88;;;5.57;45.00
70982;BME280;58640;51.320;9.456;2023-03-01T11:03:29;100378.31;;;5.54;45.20
70982;BME280;58640;51.320;9.456;2023-03-01T11:06:02;100372.34;;;5.40;45.40
70982;BME280;58640;51.320;9.456;2023-03-01T11:08:49;100357.44;;;5.48;45.69
70982;BME280;58640;51.320;9.456;2023-03-01T11:11:30;100371.38;;;5.74;46.04
70982;BME280;58640;51.320;9.456;2023-03-01T11:14:04;100362.03;;;5.24;47.28
70982;BME280;58640;51.320;9.456;2023-03-01T11:19:07;100351.88;;;5.29;47.05
70982;BME280;58640;51.320;9.456;2023-03-01T11:22:00;100353.41;;;5.10;47.54
70982;BME280;58640;51.320;9.456;2023-03-01T11:24:31;100348.94;;;5.21;48.11
70982;BME280;58640;51.320;9.456;2023-03-01T11:27:03;100345.16;;;5.13;49.17
70982;BME280;58640;51.320;9.456;2023-03-01T11:29:35;100342.75;;;5.21;48.37
70982;BME280;58640;51.320;9.456;2023-03-01T11:32:06;100341.16;;;4.62;49.16
70982;BME280;58640;51.320;9.456;2023-03-01T11:34:43;100329.91;;;5.04;49.65
70982;BME280;58640;51.320;9.456;2023-03-01T11:37:20;100335.72;;;5.09;48.71
70982;BME280;58640;51.320;9.456;2023-03-01T11:42:42;100338.81;;;4.92;48.79
70982;BME280;58640;51.320;9.456;2023-03-01T11:45:11;100338.31;;;4.87;49.85
70982;BME280;58640;51.320;9.456;2023-03-01T11:47:46;100333.31;;;4.60;49.60
70982;BME280;58640;51.320;9.456;2023-03-01T11:50:28;100332.91;;;4.53;49.96
70982;BME280;58640;51.320;9.456;2023-03-01T11:53:29;100330.13;;;4.55;50.18
70982;BME280;58640;51.320;9.456;2023-03-01T11:56:03;100339.09;;;4.54;50.00
70982;BME280;58640;51.320;9.456;2023-03-01T12:01:20;100324.84;;;4.31;50.12
70982;BME280;58640;51.320;9.456;2023-03-01T12:07:52;100321.28;;;4.43;50.51
70982;BME280;58640;51.320;9.456;2023-03-01T12:10:02;100328.53;;;4.41;50.14
70982;BME280;58640;51.320;9.456;2023-03-01T12:26:34;100313.16;;;4.45;50.65
70982;BME280;58640;51.320;9.456;2023-03-01T12:32:03;100305.28;;;4.43;51.15
70982;BME280;58640;51.320;9.456;2023-03-01T12:42:52;100286.59;;;4.32;50.68
70982;BME280;58640;51.320;9.456;2023-03-01T12:50:23;100277.75;;;4.32;49.38
70982;BME280;58640;51.320;9.456;2023-03-01T12:52:52;100276.34;;;4.50;48.82
70982;BME280;58640;51.320;9.456;2023-03-01T12:55:29;100268.91;;;4.31;49.20
70982;BME280;58640;51.320;9.456;2023-03-01T12:58:23;100262.91;;;4.51;48.67
70982;BME280;58640;51.320;9.456;2023-03-01T13:01:10;100265.25;;;4.56;48.40
70982;BME280;58640;51.320;9.456;2023-03-01T13:06:16;100260.75;;;4.57;47.57
70982;BME280;58640;51.320;9.456;2023-03-01T13:08:53;100259.78;;;4.58;46.59
70982;BME280;58640;51.320;9.456;2023-03-01T13:11:22;100254.22;;;4.61;46.14
70982;BME280;58640;51.320;9.456;2023-03-01T13:13:48;100262.25;;;4.72;46.24
70982;BME280;58640;51.320;9.456;2023-03-01T13:19:14;100253.72;;;4.56;45.36
70982;BME280;58640;51.320;9.456;2023-03-01T13:21:40;100243.69;;;4.59;44.58
70982;BME280;58640;51.320;9.456;2023-03-01T13:29:50;100232.41;;;4.56;41.90
70982;BME280;58640;51.320;9.456;2023-03-01T13:32:30;100230.13;;;4.62;42.68
70982;BME280;58640;51.320;9.456;2023-03-01T13:34:59;100242.72;;;4.71;42.07
70982;BME280;58640;51.320;9.456;2023-03-01T13:37:34;100239.00;;;4.74;41.72
70982;BME280;58640;51.320;9.456;2023-03-01T13:42:43;100226.00;;;4.69;42.54
70982;BME280;58640;51.320;9.456;2023-03-01T13:45:18;100214.53;;;4.80;41.47
70982;BME280;58640;51.320;9.456;2023-03-01T13:47:45;100216.69;;;4.86;40.25
70982;BME280;58640;51.320;9.456;2023-03-01T13:50:33;100210.63;;;4.84;40.65
70982;BME280;58640;51.320;9.456;2023-03-01T13:53:04;100210.38;;;4.87;40.55
70982;BME280;58640;51.320;9.456;2023-03-01T13:55:55;100206.28;;;4.83;40.82
70982;BME280;58640;51.320;9.456;2023-03-01T13:58:32;100210.38;;;4.76;41.51
70982;BME280;58640;51.320;9.456;2023-03-01T14:01:06;100206.03;;;4.86;40.79
70982;BME280;58640;51.320;9.456;2023-03-01T14:03:41;100198.41;;;4.92;41.75
70982;BME280;58640;51.320;9.456;2023-03-01T14:06:20;100202.16;;;4.90;42.45
70982;BME280;58640;51.320;9.456;2023-03-01T14:08:48;100202.16;;;5.01;42.85
70982;BME280;58640;51.320;9.456;2023-03-01T14:14:33;100186.16;;;5.01;43.58
70982;BME280;58640;51.320;9.456;2023-03-01T14:20:29;100184.69;;;4.97;43.40
70982;BME280;58640;51.320;9.456;2023-03-01T14:22:58;100187.47;;;5.06;43.75
70982;BME280;58640;51.320;9.456;2023-03-01T14:25:35;100192.44;;;5.00;44.41